sensor_id;sensor_type;location;lat;lon;timestamp;pressure;altitude;pressure_sealevel;temperature;humidity
74631;BME280;63138;55.082;38.804;2023-09-19T00:00:38;100464.38;;;8.99;100.00
74631;BME280;63138;55.082;38.804;2023-09-19T00:03:06;100471.28;;;8.94;100.00
74631;BME280;63138;55.082;38.804;2023-09-19T00:05:36;100465.94;;;8.84;100.00
74631;BME280;63138;55.082;38.804;2023-09-19T00:08:21;100467.91;;;8.82;100.00
74631;BME280;63138;55.082;38.804;2023-09-19T00:10:50;100461.41;;;8.75;100.00
74631;BME280;63138;55.082;38.804;2023-09-19T00:13:16;100464.03;;;8.67;100.00
74631;BME280;63138;55.082;38.804;2023-09-19T00:15:46;100465.19;;;8.64;100.00
74631;BME280;63138;55.082;38.804;2023-09-19T00:18:17;100460.94;;;8.61;100.00
74631;BME280;63138;55.082;38.804;2023-09-19T00:20:47;100453.97;;;8.59;100.00
74631;BME280;63138;55.082;38.804;2023-09-19T00:23:17;100457.81;;;8.56;100.00
74631;BME280;63138;55.082;38.804;2023-09-19T00:25:44;100464.41;;;8.54;100.00
74631;BME280;63138;55.082;38.804;2023-09-19T00:28:10;100458.28;;;8.52;100.00
74631;BME280;63138;55.082;38.804;2023-09-19T00:30:36;100465.19;;;8.64;100.00
74631;BME280;63138;55.082;38.804;2023-09-19T00:33:04;100461.50;;;8.65;100.00
74631;BME280;63138;55.082;38.804;2023-09-19T00:35:33;100461.78;;;8.62;100.00
74631;BME280;63138;55.082;38.804;2023-09-19T00:37:59;100461.69;;;8.54;100.00
74631;BME280;63138;55.082;38.804;2023-09-19T00:40:24;100470.13;;;8.51;100.00
74631;BME280;63138;55.082;38.804;2023-09-19T00:42:51;100467.69;;;8.48;100.00
74631;BME280;63138;55.082;38.804;2023-09-19T00:45:18;100457.28;;;8.53;100.00
74631;BME280;63138;55.082;38.804;2023-09-19T00:47:48;100462.66;;;8.63;100.00
74631;BME280;63138;55.082;38.804;2023-09-19T00:50:23;100462.19;;;8.67;100.00
74631;BME280;63138;55.082;38.804;2023-09-19T00:52:54;100455.63;;;8.70;100.00
74631;BME280;63138;55.082;38.804;2023-09-19T00:55:23;100446.72;;;8.77;100.00
74631;BME280;63138;55.082;38.804;2023-09-19T00:57:49;100462.47;;;8.92;100.00
74631;BME280;63138;55.082;38.804;2023-09-19T01:00:16;100471.56;;;8.91;100.00
74631;BME280;63138;55.082;38.804;2023-09-19T01:02:44;100459.97;;;8.80;100.00
74631;BME280;63138;55.082;38.804;2023-09-19T01:05:12;100463.28;;;8.74;100.00
74631;BME280;63138;55.082;38.804;2023-09-19T01:07:38;100455.16;;;8.74;100.00
74631;BME280;63138;55.082;38.804;2023-09-19T01:10:09;100467.38;;;8.78;100.00
74631;BME280;63138;55.082;38.804;2023-09-19T01:15:08;100465.97;;;8.74;100.00
74631;BME280;63138;55.082;38.804;2023-09-19T01:17:50;100469.72;;;8.73;100.00
74631;BME280;63138;55.082;38.804;2023-09-19T01:23:18;100472.31;;;8.65;100.00
74631;BME280;63138;55.082;38.804;2023-09-19T01:28:39;100459.31;;;8.69;100.00
74631;BME280;63138;55.082;38.804;2023-09-19T01:31:10;100452.66;;;8.63;100.00
74631;BME280;63138;55.082;38.804;2023-09-19T01:33:56;100463.91;;;8.68;100.00
74631;BME280;63138;55.082;38.804;2023-09-19T01:36:23;100456.63;;;8.69;100.00
74631;BME280;63138;55.082;38.804;2023-09-19T01:38:50;100462.88;;;8.69;100.00
74631;BME280;63138;55.082;38.804;2023-09-19T01:41:26;100462.19;;;8.67;100.00
74631;BME280;63138;55.082;38.804;2023-09-19T01:43:52;100464.31;;;8.73;100.00
74631;BME280;63138;55.082;38.804;2023-09-19T01:46:24;100453.47;;;8.73;100.00
74631;BME280;63138;55.082;38.804;2023-09-19T01:54:33;100456.78;;;8.85;100.00
74631;BME280;63138;55.082;38.804;2023-09-19T02:00:00;100458.50;;;8.86;100.00
74631;BME280;63138;55.082;38.804;2023-09-19T02:02:44;100458.66;;;8.85;100.00
74631;BME280;63138;55.082;38.804;2023-09-19T02:05:10;100461.06;;;8.88;100.00
74631;BME280;63138;55.082;38.804;2023-09-19T02:07:38;100462.69;;;8.80;100.00
74631;BME280;63138;55.082;38.804;2023-09-19T02:10:05;100466.09;;;8.83;100.00
74631;BME280;63138;55.082;38.804;2023-09-19T02:12:32;100458.81;;;8.83;100.00
74631;BME280;63138;55.082;38.804;2023-09-19T02:15:03;100463.38;;;8.83;100.00
74631;BME280;63138;55.082;38.804;2023-09-19T02:17:29;100459.66;;;8.84;100.00
74631;BME280;63138;55.082;38.804;2023-09-19T02:19:58;100458.66;;;8.85;100.00
74631;BME280;63138;55.082;38.804;2023-09-19T02:22:29;100465.06;;;8.84;100.00
74631;BME280;63138;55.082;38.804;2023-09-19T02:24:55;100453.84;;;8.78;100.00
74631;BME280;63138;55.082;38.804;2023-09-19T02:27:24;100452.84;;;8.79;100.00
74631;BME280;63138;55.082;38.804;2023-09-19T02:29:51;100451.50;;;8.66;100.00
74631;BME280;63138;55.082;38.804;2023-09-19T02:32:17;100452.53;;;8.65;100.00
74631;BME280;63138;55.082;38.804;2023-09-19T02:34:43;100457.47;;;8.69;100.00
74631;BME280;63138;55.082;38.804;2023-09-19T02:37:10;100457.59;;;8.68;100.00
74631;BME280;63138;55.082;38.804;2023-09-19T02:39:35;100457.06;;;8.64;100.00
74631;BME280;63138;55.082;38.804;2023-09-19T02:42:02;100454.91;;;8.68;100.00
74631;BME280;63138;55.082;38.804;2023-09-19T02:44:29;100450.38;;;8.68;100.00
74631;BME280;63138;55.082;38.804;2023-09-19T02:46:55;100441.53;;;8.66;100.00
74631;BME280;63138;55.082;38.804;2023-09-19T02:49:23;100450.66;;;8.65;100.00
74631;BME280;63138;55.082;38.804;2023-09-19T02:51:49;100451.19;;;8.69;100.00
74631;BME280;63138;55.082;38.804;2023-09-19T02:54:15;100444.00;;;8.59;100.00
74631;BME280;63138;55.082;38.804;2023-09-19T02:56:44;100452.81;;;8.61;100.00
74631;BME280;63138;55.082;38.804;2023-09-19T02:59:28;100459.47;;;8.67;100.00
74631;BME280;63138;55.082;38.804;2023-09-19T03:01:56;100453.22;;;8.67;100.00
74631;BME280;63138;55.082;38.804;2023-09-19T03:04:22;100460.16;;;8.69;100.00
74631;BME280;63138;55.082;38.804;2023-09-19T03:06:48;100460.88;;;8.71;100.00
74631;BME280;63138;55.082;38.804;2023-09-19T03:09:16;100451.59;;;8.74;100.00
74631;BME280;63138;55.082;38.804;2023-09-19T03:11:42;100456.88;;;8.75;100.00
74631;BME280;63138;55.082;38.804;2023-09-19T03:14:09;100459.56;;;8.75;100.00
74631;BME280;63138;55.082;38.804;2023-09-19T03:16:36;100457.47;;;8.69;100.00
74631;BME280;63138;55.082;38.804;2023-09-19T03:19:04;100457.03;;;8.74;100.00
74631;BME280;63138;55.082;38.804;2023-09-19T03:21:31;100453.38;;;8.65;100.00
74631;BME280;63138;55.082;38.804;2023-09-19T03:23:57;100464.84;;;8.77;100.00
74631;BME280;63138;55.082;38.804;2023-09-19T03:26:23;100463.22;;;8.84;100.00
74631;BME280;63138;55.082;38.804;2023-09-19T03:28:51;100462.22;;;8.85;100.00
74631;BME280;63138;55.082;38.804;2023-09-19T03:31:17;100460.56;;;8.74;100.00
74631;BME280;63138;55.082;38.804;2023-09-19T03:33:45;100463.13;;;8.76;100.00
74631;BME280;63138;55.082;38.804;2023-09-19T03:36:11;100452.84;;;8.79;100.00
74631;BME280;63138;55.082;38.804;2023-09-19T03:38:39;100460.34;;;8.86;100.00
74631;BME280;63138;55.082;38.804;2023-09-19T03:41:05;100452.00;;;8.79;100.00
74631;BME280;63138;55.082;38.804;2023-09-19T03:43:34;100449.44;;;8.77;100.00
74631;BME280;63138;55.082;38.804;2023-09-19T03:46:03;100452.84;;;8.79;100.00
74631;BME280;63138;55.082;38.804;2023-09-19T03:48:34;100446.44;;;8.80;100.00
74631;BME280;63138;55.082;38.804;2023-09-19T03:50:59;100443.72;;;8.80;100.00
74631;BME280;63138;55.082;38.804;2023-09-19T03:53:25;100445.56;;;8.80;100.00
74631;BME280;63138;55.082;38.804;2023-09-19T03:55:52;100442.00;;;8.79;100.00
74631;BME280;63138;55.082;38.804;2023-09-19T03:58:18;100442.47;;;8.75;100.00
74631;BME280;63138;55.082;38.804;2023-09-19T04:00:44;100435.22;;;8.75;100.00
74631;BME280;63138;55.082;38.804;2023-09-19T04:03:10;100430.09;;;8.72;100.00
74631;BME280;63138;55.082;38.804;2023-09-19T04:05:45;100428.00;;;8.66;100.00
74631;BME280;63138;55.082;38.804;2023-09-19T04:08:12;100442.09;;;8.70;100.00
74631;BME280;63138;55.082;38.804;2023-09-19T04:10:38;100439.19;;;8.71;100.00
74631;BME280;63138;55.082;38.804;2023-09-19T04:13:04;100439.53;;;8.68;100.00
74631;BME280;63138;55.082;38.804;2023-09-19T04:15:30;100437.13;;;8.65;100.00
74631;BME280;63138;55.082;38.804;2023-09-19T04:17:56;100439.97;;;8.64;100.00
74631;BME280;63138;55.082;38.804;2023-09-19T04:20:22;100436.81;;;8.68;100.00
74631;BME280;63138;55.082;38.804;2023-09-19T04:22:51;100442.63;;;8.73;100.00
74631;BME280;63138;55.082;38.804;2023-09-19T04:25:16;100437.03;;;8.75;100.00
74631;BME280;63138;55.082;38.804;2023-09-19T04:27:44;100435.66;;;8.89;100.00
74631;BME280;63138;55.082;38.804;2023-09-19T04:30:10;100440.78;;;8.92;100.00
74631;BME280;63138;55.082;38.804;2023-09-19T04:32:38;100434.75;;;8.98;100.00
74631;BME280;63138;55.082;38.804;2023-09-19T04:35:09;100440.94;;;9.08;100.00
74631;BME280;63138;55.082;38.804;2023-09-19T04:37:39;100455.97;;;9.21;100.00
74631;BME280;63138;55.082;38.804;2023-09-19T04:40:09;100455.63;;;9.24;100.00
74631;BME280;63138;55.082;38.804;2023-09-19T04:42:41;100444.50;;;9.27;100.00
74631;BME280;63138;55.082;38.804;2023-09-19T04:45:08;100445.56;;;9.34;100.00
74631;BME280;63138;55.082;38.804;2023-09-19T04:47:36;100439.16;;;9.35;100.00
74631;BME280;63138;55.082;38.804;2023-09-19T04:50:13;100461.75;;;9.44;100.00
74631;BME280;63138;55.082;38.804;2023-09-19T04:52:43;100456.22;;;9.53;100.00
74631;BME280;63138;55.082;38.804;2023-09-19T04:55:13;100450.50;;;9.56;100.00
74631;BME280;63138;55.082;38.804;2023-09-19T04:57:47;100446.16;;;9.64;100.00
74631;BME280;63138;55.082;38.804;2023-09-19T05:00:14;100440.19;;;9.60;100.00
74631;BME280;63138;55.082;38.804;2023-09-19T05:02:43;100436.63;;;9.60;100.00
74631;BME280;63138;55.082;38.804;2023-09-19T05:05:09;100442.41;;;9.65;100.00
74631;BME280;63138;55.082;38.804;2023-09-19T05:07:42;100436.47;;;9.61;100.00
74631;BME280;63138;55.082;38.804;2023-09-19T05:10:09;100430.31;;;9.51;100.00
74631;BME280;63138;55.082;38.804;2023-09-19T05:12:38;100441.03;;;9.61;100.00
74631;BME280;63138;55.082;38.804;2023-09-19T05:15:05;100446.16;;;9.64;100.00
74631;BME280;63138;55.082;38.804;2023-09-19T05:17:35;100448.53;;;9.67;100.00
74631;BME280;63138;55.082;38.804;2023-09-19T05:20:01;100439.69;;;9.65;100.00
74631;BME280;63138;55.082;38.804;2023-09-19T05:22:42;100436.00;;;9.66;100.00
74631;BME280;63138;55.082;38.804;2023-09-19T05:25:09;100430.94;;;9.71;100.00
74631;BME280;63138;55.082;38.804;2023-09-19T05:27:36;100439.03;;;9.89;100.00
74631;BME280;63138;55.082;38.804;2023-09-19T05:30:02;100434.00;;;10.02;100.00
74631;BME280;63138;55.082;38.804;2023-09-19T05:32:29;100432.63;;;9.98;100.00
74631;BME280;63138;55.082;38.804;2023-09-19T05:34:55;100433.91;;;10.12;100.00
74631;BME280;63138;55.082;38.804;2023-09-19T05:37:22;100428.88;;;10.25;100.00
74631;BME280;63138;55.082;38.804;2023-09-19T05:39:49;100436.13;;;10.43;100.00
74631;BME280;63138;55.082;38.804;2023-09-19T05:42:14;100434.41;;;10.42;100.00
74631;BME280;63138;55.082;38.804;2023-09-19T05:44:40;100429.03;;;10.58;100.00
74631;BME280;63138;55.082;38.804;2023-09-19T05:47:06;100427.72;;;10.79;100.00
74631;BME280;63138;55.082;38.804;2023-09-19T05:49:35;100430.13;;;10.90;100.00
74631;BME280;63138;55.082;38.804;2023-09-19T05:52:05;100420.13;;;10.99;100.00
74631;BME280;63138;55.082;38.804;2023-09-19T05:54:31;100431.16;;;11.05;100.00
74631;BME280;63138;55.082;38.804;2023-09-19T05:56:57;100420.81;;;11.17;100.00
74631;BME280;63138;55.082;38.804;2023-09-19T05:59:23;100420.66;;;11.19;100.00
74631;BME280;63138;55.082;38.804;2023-09-19T06:01:49;100417.41;;;11.23;100.00
74631;BME280;63138;55.082;38.804;2023-09-19T06:04:15;100424.03;;;11.21;100.00
74631;BME280;63138;55.082;38.804;2023-09-19T06:06:41;100421.66;;;11.09;100.00
74631;BME280;63138;55.082;38.804;2023-09-19T06:09:07;100423.03;;;11.14;100.00
74631;BME280;63138;55.082;38.804;2023-09-19T06:11:34;100426.44;;;11.24;100.00
74631;BME280;63138;55.082;38.804;2023-09-19T06:14:01;100430.34;;;11.29;100.00
74631;BME280;63138;55.082;38.804;2023-09-19T06:16:29;100417.44;;;11.40;100.00
74631;BME280;63138;55.082;38.804;2023-09-19T06:18:55;100417.94;;;11.35;100.00
74631;BME280;63138;55.082;38.804;2023-09-19T06:21:24;100414.69;;;11.32;100.00
74631;BME280;63138;55.082;38.804;2023-09-19T06:23:51;100414.53;;;11.33;100.00
74631;BME280;63138;55.082;38.804;2023-09-19T06:26:17;100405.34;;;11.34;100.00
74631;BME280;63138;55.082;38.804;2023-09-19T06:28:43;100411.13;;;11.39;100.00
74631;BME280;63138;55.082;38.804;2023-09-19T06:31:10;100413.34;;;11.44;100.00
74631;BME280;63138;55.082;38.804;2023-09-19T06:33:39;100420.13;;;11.48;100.00
74631;BME280;63138;55.082;38.804;2023-09-19T06:36:06;100415.16;;;11.68;100.00
74631;BME280;63138;55.082;38.804;2023-09-19T06:38:32;100412.63;;;11.83;100.00
74631;BME280;63138;55.082;38.804;2023-09-19T06:41:03;100418.53;;;11.86;100.00
74631;BME280;63138;55.082;38.804;2023-09-19T06:43:32;100416.50;;;12.05;100.00
74631;BME280;63138;55.082;38.804;2023-09-19T06:46:00;100421.06;;;12.13;100.00
74631;BME280;63138;55.082;38.804;2023-09-19T06:48:26;100414.72;;;12.20;100.00
74631;BME280;63138;55.082;38.804;2023-09-19T06:50:56;100418.06;;;12.39;100.00
74631;BME280;63138;55.082;38.804;2023-09-19T06:53:24;100410.91;;;12.38;100.00
74631;BME280;63138;55.082;38.804;2023-09-19T06:55:51;100407.84;;;12.41;100.00
74631;BME280;63138;55.082;38.804;2023-09-19T06:58:17;100407.78;;;12.49;100.00
74631;BME280;63138;55.082;38.804;2023-09-19T07:00:43;100396.81;;;12.66;100.00
74631;BME280;63138;55.082;38.804;2023-09-19T07:03:10;100396.34;;;12.85;100.00
74631;BME280;63138;55.082;38.804;2023-09-19T07:05:39;100395.03;;;12.81;100.00
74631;BME280;63138;55.082;38.804;2023-09-19T07:08:09;100404.84;;;12.90;100.00
74631;BME280;63138;55.082;38.804;2023-09-19T07:10:38;100392.19;;;12.97;100.00
74631;BME280;63138;55.082;38.804;2023-09-19T07:13:07;100394.47;;;13.09;100.00
74631;BME280;63138;55.082;38.804;2023-09-19T07:15:37;100383.69;;;13.15;100.00
74631;BME280;63138;55.082;38.804;2023-09-19T07:18:14;100385.31;;;13.25;100.00
74631;BME280;63138;55.082;38.804;2023-09-19T07:20:40;100395.38;;;13.24;100.00
74631;BME280;63138;55.082;38.804;2023-09-19T07:23:16;100384.66;;;13.46;100.00
74631;BME280;63138;55.082;38.804;2023-09-19T07:25:44;100392.09;;;13.52;100.00
74631;BME280;63138;55.082;38.804;2023-09-19T07:28:11;100391.13;;;13.45;100.00
74631;BME280;63138;55.082;38.804;2023-09-19T07:30:37;100378.91;;;13.41;100.00
74631;BME280;63138;55.082;38.804;2023-09-19T07:33:05;100385.94;;;13.35;100.00
74631;BME280;63138;55.082;38.804;2023-09-19T07:35:31;100373.22;;;13.27;100.00
74631;BME280;63138;55.082;38.804;2023-09-19T07:37:57;100378.25;;;13.38;100.00
74631;BME280;63138;55.082;38.804;2023-09-19T07:40:24;100386.06;;;13.42;100.00
74631;BME280;63138;55.082;38.804;2023-09-19T07:43:12;100376.47;;;13.46;100.00
74631;BME280;63138;55.082;38.804;2023-09-19T07:45:39;100380.00;;;13.69;100.00
74631;BME280;63138;55.082;38.804;2023-09-19T07:48:05;100370.31;;;13.82;100.00
74631;BME280;63138;55.082;38.804;2023-09-19T07:50:33;100371.25;;;13.89;100.00
74631;BME280;63138;55.082;38.804;2023-09-19T07:52:59;100366.91;;;14.09;100.00
74631;BME280;63138;55.082;38.804;2023-09-19T07:55:25;100356.63;;;14.26;100.00
74631;BME280;63138;55.082;38.804;2023-09-19T07:58:16;100348.50;;;14.84;100.00
74631;BME280;63138;55.082;38.804;2023-09-19T08:00:42;100359.81;;;15.81;100.00
74631;BME280;63138;55.082;38.804;2023-09-19T08:03:08;100357.13;;;15.59;100.00
74631;BME280;63138;55.082;38.804;2023-09-19T08:05:34;100361.00;;;15.43;100.00
74631;BME280;63138;55.082;38.804;2023-09-19T08:08:01;100368.84;;;15.25;100.00
74631;BME280;63138;55.082;38.804;2023-09-19T08:10:56;100367.09;;;14.96;100.00
74631;BME280;63138;55.082;38.804;2023-09-19T08:13:23;100359.63;;;15.04;100.00
74631;BME280;63138;55.082;38.804;2023-09-19T08:15:50;100355.91;;;14.90;100.00
74631;BME280;63138;55.082;38.804;2023-09-19T08:18:18;100363.78;;;15.00;100.00
74631;BME280;63138;55.082;38.804;2023-09-19T08:20:53;100357.59;;;14.91;100.00
74631;BME280;63138;55.082;38.804;2023-09-19T08:23:19;100350.38;;;14.84;100.00
74631;BME280;63138;55.082;38.804;2023-09-19T08:25:46;100355.50;;;14.94;100.00
74631;BME280;63138;55.082;38.804;2023-09-19T08:28:12;100348.88;;;15.03;100.00
74631;BME280;63138;55.082;38.804;2023-09-19T08:30:43;100358.38;;;15.07;100.00
74631;BME280;63138;55.082;38.804;2023-09-19T08:33:09;100341.94;;;15.28;100.00
74631;BME280;63138;55.082;38.804;2023-09-19T08:35:35;100351.19;;;15.27;100.00
74631;BME280;63138;55.082;38.804;2023-09-19T08:38:03;100358.34;;;15.28;100.00
74631;BME280;63138;55.082;38.804;2023-09-19T08:40:30;100358.69;;;15.19;100.00
74631;BME280;63138;55.082;38.804;2023-09-19T08:42:59;100361.59;;;15.39;100.00
74631;BME280;63138;55.082;38.804;2023-09-19T08:45:26;100361.28;;;15.48;100.00
74631;BME280;63138;55.082;38.804;2023-09-19T08:50:41;100366.44;;;15.65;100.00
74631;BME280;63138;55.082;38.804;2023-09-19T08:53:16;100358.09;;;15.45;100.00
74631;BME280;63138;55.082;38.804;2023-09-19T08:55:46;100360.31;;;15.35;100.00
74631;BME280;63138;55.082;38.804;2023-09-19T08:58:16;100354.72;;;15.21;100.00
74631;BME280;63138;55.082;38.804;2023-09-19T09:00:48;100347.19;;;15.23;100.00
74631;BME280;63138;55.082;38.804;2023-09-19T09:03:16;100338.97;;;15.23;100.00
74631;BME280;63138;55.082;38.804;2023-09-19T09:05:46;100341.72;;;15.23;100.00
74631;BME280;63138;55.082;38.804;2023-09-19T09:08:13;100338.97;;;15.23;100.00
74631;BME280;63138;55.082;38.804;2023-09-19T09:10:39;100337.13;;;15.31;100.00
74631;BME280;63138;55.082;38.804;2023-09-19T09:13:09;100331.50;;;15.39;100.00
74631;BME280;63138;55.082;38.804;2023-09-19T09:15:36;100333.22;;;15.46;100.00
74631;BME280;63138;55.082;38.804;2023-09-19T09:18:03;100329.34;;;15.62;100.00
74631;BME280;63138;55.082;38.804;2023-09-19T09:20:30;100335.03;;;15.89;100.00
74631;BME280;63138;55.082;38.804;2023-09-19T09:22:57;100323.91;;;15.97;100.00
74631;BME280;63138;55.082;38.804;2023-09-19T09:25:55;100315.81;;;16.31;100.00
74631;BME280;63138;55.082;38.804;2023-09-19T09:28:45;100312.78;;;16.74;100.00
74631;BME280;63138;55.082;38.804;2023-09-19T09:31:24;100301.44;;;17.50;100.00
74631;BME280;63138;55.082;38.804;2023-09-19T09:33:54;100298.63;;;17.90;100.00
74631;BME280;63138;55.082;38.804;2023-09-19T09:36:38;100293.16;;;18.36;100.00
74631;BME280;63138;55.082;38.804;2023-09-19T09:39:05;100288.00;;;18.78;100.00
74631;BME280;63138;55.082;38.804;2023-09-19T09:41:44;100289.72;;;19.10;100.00
74631;BME280;63138;55.082;38.804;2023-09-19T09:44:16;100289.59;;;18.99;100.00
74631;BME280;63138;55.082;38.804;2023-09-19T09:46:46;100287.44;;;19.01;100.00
74631;BME280;63138;55.082;38.804;2023-09-19T09:49:23;100262.34;;;18.59;100.00
74631;BME280;63138;55.082;38.804;2023-09-19T09:52:03;100283.31;;;18.14;100.00
74631;BME280;63138;55.082;38.804;2023-09-19T09:55:02;100279.00;;;18.32;100.00
74631;BME280;63138;55.082;38.804;2023-09-19T09:57:33;100277.16;;;18.19;100.00
74631;BME280;63138;55.082;38.804;2023-09-19T10:00:01;100283.69;;;18.18;100.00
74631;BME280;63138;55.082;38.804;2023-09-19T10:02:39;100282.78;;;18.31;100.00
74631;BME280;63138;55.082;38.804;2023-09-19T10:05:16;100267.03;;;18.13;100.00
74631;BME280;63138;55.082;38.804;2023-09-19T10:07:49;100275.22;;;18.26;100.00
74631;BME280;63138;55.082;38.804;2023-09-19T10:10:38;100266.81;;;18.53;100.00
74631;BME280;63138;55.082;38.804;2023-09-19T10:13:12;100266.44;;;18.49;100.00
74631;BME280;63138;55.082;38.804;2023-09-19T10:15:47;100247.22;;;18.43;100.00
74631;BME280;63138;55.082;38.804;2023-09-19T10:18:22;100256.88;;;18.52;100.00
74631;BME280;63138;55.082;38.804;2023-09-19T10:20:50;100237.94;;;18.69;100.00
74631;BME280;63138;55.082;38.804;2023-09-19T10:23:19;100251.78;;;18.56;100.00
74631;BME280;63138;55.082;38.804;2023-09-19T10:25:50;100244.53;;;18.61;100.00
74631;BME280;63138;55.082;38.804;2023-09-19T10:28:17;100243.44;;;18.69;100.00
74631;BME280;63138;55.082;38.804;2023-09-19T10:30:50;100241.06;;;18.72;100.00
74631;BME280;63138;55.082;38.804;2023-09-19T10:33:24;100244.00;;;18.78;100.00
74631;BME280;63138;55.082;38.804;2023-09-19T10:35:58;100243.94;;;18.91;100.00
74631;BME280;63138;55.082;38.804;2023-09-19T10:38:26;100237.19;;;18.87;100.00
74631;BME280;63138;55.082;38.804;2023-09-19T10:40:56;100224.94;;;18.83;100.00
74631;BME280;63138;55.082;38.804;2023-09-19T10:43:30;100232.19;;;19.02;100.00
74631;BME280;63138;55.082;38.804;2023-09-19T10:46:07;100226.03;;;19.07;100.00
74631;BME280;63138;55.082;38.804;2023-09-19T10:48:35;100228.53;;;19.08;100.00
74631;BME280;63138;55.082;38.804;2023-09-19T10:51:08;100225.06;;;19.20;100.00
74631;BME280;63138;55.082;38.804;2023-09-19T10:53:54;100224.47;;;19.55;100.00
74631;BME280;63138;55.082;38.804;2023-09-19T10:56:29;100216.84;;;19.75;100.00
74631;BME280;63138;55.082;38.804;2023-09-19T10:59:09;100213.69;;;19.90;100.00
74631;BME280;63138;55.082;38.804;2023-09-19T11:01:49;100221.28;;;19.76;100.00
74631;BME280;63138;55.082;38.804;2023-09-19T11:04:32;100207.50;;;19.76;100.00
74631;BME280;63138;55.082;38.804;2023-09-19T11:10:00;100209.47;;;20.06;100.00
74631;BME280;63138;55.082;38.804;2023-09-19T11:15:08;100209.97;;;20.15;100.00
74631;BME280;63138;55.082;38.804;2023-09-19T11:17:37;100204.66;;;20.01;100.00
74631;BME280;63138;55.082;38.804;2023-09-19T11:30:46;100197.03;;;20.15;100.00
74631;BME280;63138;55.082;38.804;2023-09-19T11:33:20;100188.19;;;19.95;100.00
74631;BME280;63138;55.082;38.804;2023-09-19T11:36:15;100198.09;;;20.14;100.00
74631;BME280;63138;55.082;38.804;2023-09-19T11:49:30;100183.19;;;20.64;100.00
74631;BME280;63138;55.082;38.804;2023-09-19T11:52:00;100182.59;;;20.74;100.00
74631;BME280;63138;55.082;38.804;2023-09-19T11:54:56;100179.59;;;20.64;100.00
74631;BME280;63138;55.082;38.804;2023-09-19T11:57:23;100181.44;;;20.51;100.00
74631;BME280;63138;55.082;38.804;2023-09-19T11:59:53;100187.03;;;20.75;100.00
74631;BME280;63138;55.082;38.804;2023-09-19T12:02:39;100179.97;;;20.91;100.00
74631;BME280;63138;55.082;38.804;2023-09-19T12:05:06;100175.63;;;21.07;100.00
74631;BME280;63138;55.082;38.804;2023-09-19T12:07:42;100172.53;;;21.27;100.00
74631;BME280;63138;55.082;38.804;2023-09-19T12:10:11;100173.56;;;21.61;100.00
74631;BME280;63138;55.082;38.804;2023-09-19T12:12:47;100169.25;;;21.42;100.00
74631;BME280;63138;55.082;38.804;2023-09-19T12:15:24;100171.66;;;21.26;100.00
74631;BME280;63138;55.082;38.804;2023-09-19T12:18:29;100173.13;;;21.29;100.00
74631;BME280;63138;55.082;38.804;2023-09-19T12:20:58;100167.81;;;21.51;100.00
74631;BME280;63138;55.082;38.804;2023-09-19T12:23:26;100159.28;;;21.41;100.00
74631;BME280;63138;55.082;38.804;2023-09-19T12:25:54;100158.78;;;21.44;100.00
74631;BME280;63138;55.082;38.804;2023-09-19T12:28:27;100160.38;;;21.39;100.00
74631;BME280;63138;55.082;38.804;2023-09-19T12:31:06;100148.63;;;21.32;100.00
74631;BME280;63138;55.082;38.804;2023-09-19T12:33:33;100150.66;;;21.25;100.00
74631;BME280;63138;55.082;38.804;2023-09-19T12:35:59;100149.56;;;21.26;100.00
74631;BME280;63138;55.082;38.804;2023-09-19T12:38:26;100149.22;;;21.34;100.00
74631;BME280;63138;55.082;38.804;2023-09-19T12:41:01;100141.63;;;21.42;100.00
74631;BME280;63138;55.082;38.804;2023-09-19T12:43:31;100139.34;;;21.38;100.00
74631;BME280;63138;55.082;38.804;2023-09-19T12:46:05;100130.72;;;21.47;100.00
74631;BME280;63138;55.082;38.804;2023-09-19T12:48:31;100132.84;;;21.56;100.00
74631;BME280;63138;55.082;38.804;2023-09-19T12:53:38;100128.06;;;21.52;100.00
74631;BME280;63138;55.082;38.804;2023-09-19T12:56:15;100119.16;;;21.50;100.00
74631;BME280;63138;55.082;38.804;2023-09-19T12:58:56;100121.25;;;21.71;100.00
74631;BME280;63138;55.082;38.804;2023-09-19T13:01:25;100108.75;;;21.52;100.00
74631;BME280;63138;55.082;38.804;2023-09-19T13:04:14;100113.91;;;21.48;100.00
74631;BME280;63138;55.082;38.804;2023-09-19T13:07:02;100112.56;;;21.51;100.00
74631;BME280;63138;55.082;38.804;2023-09-19T13:09:28;100113.63;;;21.62;100.00
74631;BME280;63138;55.082;38.804;2023-09-19T13:12:00;100102.59;;;21.50;100.00
74631;BME280;63138;55.082;38.804;2023-09-19T13:14:28;100100.69;;;21.50;100.00
74631;BME280;63138;55.082;38.804;2023-09-19T13:17:16;100105.88;;;21.47;100.00
74631;BME280;63138;55.082;38.804;2023-09-19T13:19:46;100107.03;;;21.51;100.00
74631;BME280;63138;55.082;38.804;2023-09-19T13:22:44;100104.97;;;21.58;100.00
74631;BME280;63138;55.082;38.804;2023-09-19T13:25:20;100098.22;;;21.66;100.00
74631;BME280;63138;55.082;38.804;2023-09-19T13:27:51;100090.69;;;21.61;100.00
74631;BME280;63138;55.082;38.804;2023-09-19T13:30:20;100095.63;;;21.59;100.00
74631;BME280;63138;55.082;38.804;2023-09-19T13:32:47;100094.53;;;21.60;100.00
74631;BME280;63138;55.082;38.804;2023-09-19T13:35:14;100089.00;;;21.60;100.00
74631;BME280;63138;55.082;38.804;2023-09-19T13:37:41;100091.16;;;21.58;100.00